sensor_id;sensor_type;location;lat;lon;timestamp;temperature;humidity
18335;DHT22;9293;49.524;10.964;2023-02-01T00:01:24;4.20;99.90
18335;DHT22;9293;49.524;10.964;2023-02-01T00:03:52;4.20;99.90
18335;DHT22;9293;49.524;10.964;2023-02-01T00:06:21;4.20;99.90
18335;DHT22;9293;49.524;10.964;2023-02-01T00:08:52;4.10;99.90
18335;DHT22;9293;49.524;10.964;2023-02-01T00:11:20;4.10;99.90
18335;DHT22;9293;49.524;10.964;2023-02-01T00:13:49;4.10;99.90
18335;DHT22;9293;49.524;10.964;2023-02-01T00:16:22;4.20;99.90
18335;DHT22;9293;49.524;10.964;2023-02-01T00:18:58;4.20;99.90
18335;DHT22;9293;49.524;10.964;2023-02-01T00:21:26;4.20;99.90
18335;DHT22;9293;49.524;10.964;2023-02-01T00:23:54;4.20;99.90
18335;DHT22;9293;49.524;10.964;2023-02-01T00:26:24;4.20;99.90
18335;DHT22;9293;49.524;10.964;2023-02-01T00:28:53;4.30;99.90
18335;DHT22;9293;49.524;10.964;2023-02-01T00:31:21;4.30;99.90
18335;DHT22;9293;49.524;10.964;2023-02-01T00:33:49;4.30;99.90
18335;DHT22;9293;49.524;10.964;2023-02-01T00:36:18;4.30;99.90
18335;DHT22;9293;49.524;10.964;2023-02-01T00:38:46;4.30;99.90
18335;DHT22;9293;49.524;10.964;2023-02-01T00:41:16;4.30;99.90
18335;DHT22;9293;49.524;10.964;2023-02-01T00:43:45;4.30;99.90
18335;DHT22;9293;49.524;10.964;2023-02-01T00:46:15;4.30;99.90
18335;DHT22;9293;49.524;10.964;2023-02-01T00:48:43;4.40;99.90
18335;DHT22;9293;49.524;10.964;2023-02-01T00:51:13;4.30;99.90
18335;DHT22;9293;49.524;10.964;2023-02-01T00:53:42;4.40;99.90
18335;DHT22;9293;49.524;10.964;2023-02-01T00:56:11;4.40;99.90
18335;DHT22;9293;49.524;10.964;2023-02-01T00:58:39;4.40;99.90
18335;DHT22;9293;49.524;10.964;2023-02-01T01:01:23;4.40;99.90
18335;DHT22;9293;49.524;10.964;2023-02-01T01:03:57;4.40;99.90
18335;DHT22;9293;49.524;10.964;2023-02-01T01:06:28;4.40;99.90
18335;DHT22;9293;49.524;10.964;2023-02-01T01:08:59;4.50;99.90
18335;DHT22;9293;49.524;10.964;2023-02-01T01:11:30;4.40;99.90
18335;DHT22;9293;49.524;10.964;2023-02-01T01:13:59;4.40;99.90
18335;DHT22;9293;49.524;10.964;2023-02-01T01:16:28;4.40;99.90
18335;DHT22;9293;49.524;10.964;2023-02-01T01:18:57;4.40;99.90
18335;DHT22;9293;49.524;10.964;2023-02-01T01:21:26;4.40;99.90
18335;DHT22;9293;49.524;10.964;2023-02-01T01:23:55;4.40;99.90
18335;DHT22;9293;49.524;10.964;2023-02-01T01:26:25;4.30;99.90
18335;DHT22;9293;49.524;10.964;2023-02-01T01:28:58;4.30;99.90
18335;DHT22;9293;49.524;10.964;2023-02-01T01:31:26;4.30;99.90
18335;DHT22;9293;49.524;10.964;2023-02-01T01:33:56;4.30;99.90
18335;DHT22;9293;49.524;10.964;2023-02-01T01:36:27;4.30;99.90
18335;DHT22;9293;49.524;10.964;2023-02-01T01:38:55;4.30;99.90
18335;DHT22;9293;49.524;10.964;2023-02-01T01:41:30;4.30;99.90
18335;DHT22;9293;49.524;10.964;2023-02-01T01:47:17;4.30;99.90
18335;DHT22;9293;49.524;10.964;2023-02-01T01:49:45;4.30;99.90
18335;DHT22;9293;49.524;10.964;2023-02-01T01:52:13;4.30;99.90
18335;DHT22;9293;49.524;10.964;2023-02-01T01:54:45;4.30;99.90
18335;DHT22;9293;49.524;10.964;2023-02-01T01:57:20;4.30;99.90
18335;DHT22;9293;49.524;10.964;2023-02-01T01:59:56;4.40;99.90
18335;DHT22;9293;49.524;10.964;2023-02-01T02:02:40;4.40;99.90
18335;DHT22;9293;49.524;10.964;2023-02-01T02:05:09;4.40;99.90
18335;DHT22;9293;49.524;10.964;2023-02-01T02:07:41;4.40;99.90
18335;DHT22;9293;49.524;10.964;2023-02-01T02:10:13;4.40;99.90
18335;DHT22;9293;49.524;10.964;2023-02-01T02:12:44;4.40;99.90
18335;DHT22;9293;49.524;10.964;2023-02-01T02:15:14;4.40;99.90
18335;DHT22;9293;49.524;10.964;2023-02-01T02:18:00;4.50;99.90
18335;DHT22;9293;49.524;10.964;2023-02-01T02:20:52;4.50;99.90
18335;DHT22;9293;49.524;10.964;2023-02-01T02:34:46;4.50;99.90
18335;DHT22;9293;49.524;10.964;2023-02-01T02:37:31;4.50;99.90
18335;DHT22;9293;49.524;10.964;2023-02-01T02:40:18;4.50;99.90
18335;DHT22;9293;49.524;10.964;2023-02-01T02:45:54;4.50;99.90
18335;DHT22;9293;49.524;10.964;2023-02-01T02:48:48;4.40;99.90
18335;DHT22;9293;49.524;10.964;2023-02-01T02:51:25;4.50;99.90
18335;DHT22;9293;49.524;10.964;2023-02-01T02:54:28;4.50;99.90
18335;DHT22;9293;49.524;10.964;2023-02-01T02:57:26;4.50;99.90
18335;DHT22;9293;49.524;10.964;2023-02-01T03:00:17;4.50;99.90
18335;DHT22;9293;49.524;10.964;2023-02-01T03:03:06;4.50;99.90
18335;DHT22;9293;49.524;10.964;2023-02-01T03:05:53;4.50;99.90
18335;DHT22;9293;49.524;10.964;2023-02-01T03:08:25;4.50;99.90
18335;DHT22;9293;49.524;10.964;2023-02-01T03:11:11;4.50;99.90
18335;DHT22;9293;49.524;10.964;2023-02-01T03:13:57;4.50;99.90
18335;DHT22;9293;49.524;10.964;2023-02-01T03:16:54;4.50;99.90
18335;DHT22;9293;49.524;10.964;2023-02-01T03:19:29;4.40;99.90
18335;DHT22;9293;49.524;10.964;2023-02-01T03:22:09;4.40;99.90
18335;DHT22;9293;49.524;10.964;2023-02-01T03:24:41;4.40;99.90
18335;DHT22;9293;49.524;10.964;2023-02-01T03:27:27;4.40;99.90
18335;DHT22;9293;49.524;10.964;2023-02-01T03:30:09;4.40;99.90
18335;DHT22;9293;49.524;10.964;2023-02-01T03:32:42;4.40;99.90
18335;DHT22;9293;49.524;10.964;2023-02-01T03:35:55;4.40;99.90
18335;DHT22;9293;49.524;10.964;2023-02-01T03:38:32;4.50;99.90
18335;DHT22;9293;49.524;10.964;2023-02-01T03:41:24;4.40;99.90
18335;DHT22;9293;49.524;10.964;2023-02-01T03:44:04;4.40;99.90
18335;DHT22;9293;49.524;10.964;2023-02-01T03:47:20;4.40;99.90
18335;DHT22;9293;49.524;10.964;2023-02-01T03:49:55;4.40;99.90
18335;DHT22;9293;49.524;10.964;2023-02-01T03:52:32;4.40;99.90
18335;DHT22;9293;49.524;10.964;2023-02-01T03:55:06;4.40;99.90
18335;DHT22;9293;49.524;10.964;2023-02-01T03:57:48;4.40;99.90
18335;DHT22;9293;49.524;10.964;2023-02-01T04:00:22;4.40;99.90
18335;DHT22;9293;49.524;10.964;2023-02-01T04:02:53;4.50;99.90
18335;DHT22;9293;49.524;10.964;2023-02-01T04:05:22;4.40;99.90
18335;DHT22;9293;49.524;10.964;2023-02-01T04:08:00;4.50;99.90
18335;DHT22;9293;49.524;10.964;2023-02-01T04:10:29;4.50;99.90
18335;DHT22;9293;49.524;10.964;2023-02-01T04:12:57;4.50;99.90
18335;DHT22;9293;49.524;10.964;2023-02-01T04:15:25;4.50;99.90
18335;DHT22;9293;49.524;10.964;2023-02-01T04:17:53;4.50;99.90
18335;DHT22;9293;49.524;10.964;2023-02-01T04:20:21;4.50;99.90
18335;DHT22;9293;49.524;10.964;2023-02-01T04:22:49;4.50;99.90
18335;DHT22;9293;49.524;10.964;2023-02-01T04:25:17;4.50;99.90
18335;DHT22;9293;49.524;10.964;2023-02-01T04:27:45;4.50;99.90
18335;DHT22;9293;49.524;10.964;2023-02-01T04:30:14;4.60;99.90
18335;DHT22;9293;49.524;10.964;2023-02-01T04:32:42;4.50;99.90
18335;DHT22;9293;49.524;10.964;2023-02-01T04:35:10;4.50;99.90
18335;DHT22;9293;49.524;10.964;2023-02-01T04:37:39;4.50;99.90
18335;DHT22;9293;49.524;10.964;2023-02-01T04:40:07;4.40;99.90
18335;DHT22;9293;49.524;10.964;2023-02-01T04:42:35;4.40;99.90
18335;DHT22;9293;49.524;10.964;2023-02-01T04:45:04;4.30;99.90
18335;DHT22;9293;49.524;10.964;2023-02-01T04:47:32;4.30;99.90
18335;DHT22;9293;49.524;10.964;2023-02-01T04:50:00;4.30;99.90
18335;DHT22;9293;49.524;10.964;2023-02-01T04:52:28;4.30;99.90
18335;DHT22;9293;49.524;10.964;2023-02-01T04:54:56;4.30;99.90
18335;DHT22;9293;49.524;10.964;2023-02-01T04:57:26;4.30;99.90
18335;DHT22;9293;49.524;10.964;2023-02-01T04:59:54;4.30;99.90
18335;DHT22;9293;49.524;10.964;2023-02-01T05:02:22;4.30;99.90
18335;DHT22;9293;49.524;10.964;2023-02-01T05:04:50;4.30;99.90
18335;DHT22;9293;49.524;10.964;2023-02-01T05:07:18;4.20;99.90
18335;DHT22;9293;49.524;10.964;2023-02-01T05:09:50;4.30;99.90
18335;DHT22;9293;49.524;10.964;2023-02-01T05:12:31;4.20;99.90
18335;DHT22;9293;49.524;10.964;2023-02-01T05:15:18;4.20;99.90
18335;DHT22;9293;49.524;10.964;2023-02-01T05:17:45;4.20;99.90
18335;DHT22;9293;49.524;10.964;2023-02-01T05:20:14;4.20;99.90
18335;DHT22;9293;49.524;10.964;2023-02-01T05:22:42;4.10;99.90
18335;DHT22;9293;49.524;10.964;2023-02-01T05:25:10;4.10;99.90
18335;DHT22;9293;49.524;10.964;2023-02-01T05:27:38;4.00;99.90
18335;DHT22;9293;49.524;10.964;2023-02-01T05:30:06;4.00;99.90
18335;DHT22;9293;49.524;10.964;2023-02-01T05:32:34;3.90;99.90
18335;DHT22;9293;49.524;10.964;2023-02-01T05:35:03;3.90;99.90
18335;DHT22;9293;49.524;10.964;2023-02-01T05:37:31;3.90;99.90
18335;DHT22;9293;49.524;10.964;2023-02-01T05:39:59;3.90;99.90
18335;DHT22;9293;49.524;10.964;2023-02-01T05:42:27;3.90;99.90
18335;DHT22;9293;49.524;10.964;2023-02-01T05:44:55;3.90;99.90
18335;DHT22;9293;49.524;10.964;2023-02-01T05:47:22;3.80;99.90
18335;DHT22;9293;49.524;10.964;2023-02-01T05:49:50;3.80;99.90
18335;DHT22;9293;49.524;10.964;2023-02-01T05:52:18;3.80;99.90
18335;DHT22;9293;49.524;10.964;2023-02-01T05:54:47;3.80;99.90
18335;DHT22;9293;49.524;10.964;2023-02-01T05:57:15;3.80;99.90
18335;DHT22;9293;49.524;10.964;2023-02-01T05:59:43;3.80;99.90
18335;DHT22;9293;49.524;10.964;2023-02-01T06:02:15;3.80;99.90
18335;DHT22;9293;49.524;10.964;2023-02-01T06:04:44;3.80;99.90
18335;DHT22;9293;49.524;10.964;2023-02-01T06:07:12;3.80;99.90
18335;DHT22;9293;49.524;10.964;2023-02-01T06:09:40;3.80;99.90
18335;DHT22;9293;49.524;10.964;2023-02-01T06:12:08;3.80;99.90
18335;DHT22;9293;49.524;10.964;2023-02-01T06:14:36;3.70;99.90
18335;DHT22;9293;49.524;10.964;2023-02-01T06:17:04;3.70;99.90
18335;DHT22;9293;49.524;10.964;2023-02-01T06:19:33;3.70;99.90
18335;DHT22;9293;49.524;10.964;2023-02-01T06:22:01;3.60;99.90
18335;DHT22;9293;49.524;10.964;2023-02-01T06:24:29;3.60;99.90
18335;DHT22;9293;49.524;10.964;2023-02-01T06:26:57;3.60;99.90
18335;DHT22;9293;49.524;10.964;2023-02-01T06:29:25;3.60;99.90
18335;DHT22;9293;49.524;10.964;2023-02-01T06:32:05;3.60;99.90
18335;DHT22;9293;49.524;10.964;2023-02-01T06:34:33;3.60;99.90
18335;DHT22;9293;49.524;10.964;2023-02-01T06:37:01;3.60;99.90
18335;DHT22;9293;49.524;10.964;2023-02-01T06:39:29;3.70;99.90
18335;DHT22;9293;49.524;10.964;2023-02-01T06:41:57;3.70;99.90
18335;DHT22;9293;49.524;10.964;2023-02-01T06:44:25;3.70;99.90
18335;DHT22;9293;49.524;10.964;2023-02-01T06:46:53;3.70;99.90
18335;DHT22;9293;49.524;10.964;2023-02-01T06:49:22;3.70;99.90
18335;DHT22;9293;49.524;10.964;2023-02-01T06:51:50;3.70;99.90
18335;DHT22;9293;49.524;10.964;2023-02-01T06:54:18;3.70;99.90
18335;DHT22;9293;49.524;10.964;2023-02-01T06:56:46;3.70;99.90
18335;DHT22;9293;49.524;10.964;2023-02-01T06:59:22;3.70;99.90
18335;DHT22;9293;49.524;10.964;2023-02-01T07:01:50;3.70;99.90
18335;DHT22;9293;49.524;10.964;2023-02-01T07:04:18;3.70;99.90
18335;DHT22;9293;49.524;10.964;2023-02-01T07:06:46;3.70;99.90
18335;DHT22;9293;49.524;10.964;2023-02-01T07:09:14;3.70;99.90
18335;DHT22;9293;49.524;10.964;2023-02-01T07:11:42;3.70;99.90
18335;DHT22;9293;49.524;10.964;2023-02-01T07:14:12;3.80;99.90
18335;DHT22;9293;49.524;10.964;2023-02-01T07:16:40;3.80;99.90
18335;DHT22;9293;49.524;10.964;2023-02-01T07:19:08;3.90;99.90
18335;DHT22;9293;49.524;10.964;2023-02-01T07:21:36;3.90;99.90
18335;DHT22;9293;49.524;10.964;2023-02-01T07:24:04;3.90;99.90
18335;DHT22;9293;49.524;10.964;2023-02-01T07:26:32;3.90;99.90
18335;DHT22;9293;49.524;10.964;2023-02-01T07:29:00;4.00;99.90
18335;DHT22;9293;49.524;10.964;2023-02-01T07:31:28;4.00;99.90
18335;DHT22;9293;49.524;10.964;2023-02-01T07:33:57;4.00;99.90
18335;DHT22;9293;49.524;10.964;2023-02-01T07:36:25;4.00;99.90
18335;DHT22;9293;49.524;10.964;2023-02-01T07:38:53;4.10;99.90
18335;DHT22;9293;49.524;10.964;2023-02-01T07:41:22;4.10;99.90
18335;DHT22;9293;49.524;10.964;2023-02-01T07:43:54;4.20;99.90
18335;DHT22;9293;49.524;10.964;2023-02-01T07:46:22;4.20;99.90
18335;DHT22;9293;49.524;10.964;2023-02-01T07:48:50;4.20;99.90
18335;DHT22;9293;49.524;10.964;2023-02-01T07:51:18;4.30;99.90
18335;DHT22;9293;49.524;10.964;2023-02-01T07:53:46;4.30;99.90
18335;DHT22;9293;49.524;10.964;2023-02-01T07:56:17;4.30;99.90
18335;DHT22;9293;49.524;10.964;2023-02-01T07:58:55;4.30;99.90
18335;DHT22;9293;49.524;10.964;2023-02-01T08:01:28;4.40;99.90
18335;DHT22;9293;49.524;10.964;2023-02-01T08:03:58;4.40;99.90
18335;DHT22;9293;49.524;10.964;2023-02-01T08:06:31;4.40;99.90
18335;DHT22;9293;49.524;10.964;2023-02-01T08:09:00;4.40;99.90
18335;DHT22;9293;49.524;10.964;2023-02-01T08:11:28;4.40;99.90
18335;DHT22;9293;49.524;10.964;2023-02-01T08:13:57;4.70;99.90
18335;DHT22;9293;49.524;10.964;2023-02-01T08:16:25;5.10;99.90
18335;DHT22;9293;49.524;10.964;2023-02-01T08:18:53;5.40;99.90
18335;DHT22;9293;49.524;10.964;2023-02-01T08:21:24;5.50;99.90
18335;DHT22;9293;49.524;10.964;2023-02-01T08:23:52;5.60;99.90
18335;DHT22;9293;49.524;10.964;2023-02-01T08:26:23;5.40;99.90
18335;DHT22;9293;49.524;10.964;2023-02-01T08:28:54;5.30;99.90
18335;DHT22;9293;49.524;10.964;2023-02-01T08:31:24;5.20;99.90
18335;DHT22;9293;49.524;10.964;2023-02-01T08:33:56;5.20;99.90
18335;DHT22;9293;49.524;10.964;2023-02-01T08:36:25;5.20;99.90
18335;DHT22;9293;49.524;10.964;2023-02-01T08:38:54;5.20;99.90
18335;DHT22;9293;49.524;10.964;2023-02-01T08:41:27;5.20;99.90
18335;DHT22;9293;49.524;10.964;2023-02-01T08:43:57;5.20;99.90
18335;DHT22;9293;49.524;10.964;2023-02-01T08:46:26;5.20;99.90
18335;DHT22;9293;49.524;10.964;2023-02-01T08:48:54;5.20;99.90
18335;DHT22;9293;49.524;10.964;2023-02-01T08:51:23;5.20;99.90
18335;DHT22;9293;49.524;10.964;2023-02-01T08:53:51;5.40;99.90
18335;DHT22;9293;49.524;10.964;2023-02-01T08:56:20;5.30;99.90
18335;DHT22;9293;49.524;10.964;2023-02-01T08:58:48;5.30;99.90
18335;DHT22;9293;49.524;10.964;2023-02-01T09:01:17;5.30;99.90
18335;DHT22;9293;49.524;10.964;2023-02-01T09:03:45;5.20;99.90
18335;DHT22;9293;49.524;10.964;2023-02-01T09:06:14;5.20;99.90
18335;DHT22;9293;49.524;10.964;2023-02-01T09:08:48;5.20;99.90
18335;DHT22;9293;49.524;10.964;2023-02-01T09:11:17;5.10;99.90
18335;DHT22;9293;49.524;10.964;2023-02-01T09:13:47;5.00;99.90
18335;DHT22;9293;49.524;10.964;2023-02-01T09:16:15;5.00;99.90
18335;DHT22;9293;49.524;10.964;2023-02-01T09:18:45;5.00;99.90
18335;DHT22;9293;49.524;10.964;2023-02-01T09:21:33;5.00;99.90
18335;DHT22;9293;49.524;10.964;2023-02-01T09:24:02;5.00;99.90
18335;DHT22;9293;49.524;10.964;2023-02-01T09:26:30;5.10;99.90
18335;DHT22;9293;49.524;10.964;2023-02-01T09:28:59;5.10;99.90
18335;DHT22;9293;49.524;10.964;2023-02-01T09:31:28;5.00;99.90
18335;DHT22;9293;49.524;10.964;2023-02-01T09:33:56;5.00;99.90
18335;DHT22;9293;49.524;10.964;2023-02-01T09:36:24;4.90;99.90
18335;DHT22;9293;49.524;10.964;2023-02-01T09:38:52;4.90;99.90
18335;DHT22;9293;49.524;10.964;2023-02-01T09:44:36;5.00;99.90
18335;DHT22;9293;49.524;10.964;2023-02-01T09:47:12;5.20;99.90
18335;DHT22;9293;49.524;10.964;2023-02-01T09:50:46;5.40;99.90
18335;DHT22;9293;49.524;10.964;2023-02-01T09:53:04;5.60;99.90
18335;DHT22;9293;49.524;10.964;2023-02-01T09:55:47;5.60;99.90
18335;DHT22;9293;49.524;10.964;2023-02-01T09:58:49;5.70;99.90
18335;DHT22;9293;49.524;10.964;2023-02-01T10:01:26;5.70;99.90
18335;DHT22;9293;49.524;10.964;2023-02-01T10:04:15;5.70;99.90
18335;DHT22;9293;49.524;10.964;2023-02-01T10:06:54;5.70;99.90
18335;DHT22;9293;49.524;10.964;2023-02-01T10:09:44;5.70;99.90
18335;DHT22;9293;49.524;10.964;2023-02-01T10:15:10;5.60;99.90
18335;DHT22;9293;49.524;10.964;2023-02-01T10:20:49;5.50;99.90
18335;DHT22;9293;49.524;10.964;2023-02-01T10:23:46;5.50;99.90
18335;DHT22;9293;49.524;10.964;2023-02-01T10:26:26;5.50;99.90
18335;DHT22;9293;49.524;10.964;2023-02-01T10:29:00;5.50;99.90
18335;DHT22;9293;49.524;10.964;2023-02-01T10:31:31;5.40;99.90
18335;DHT22;9293;49.524;10.964;2023-02-01T10:34:11;5.40;99.90
18335;DHT22;9293;49.524;10.964;2023-02-01T10:36:50;5.40;99.90
18335;DHT22;9293;49.524;10.964;2023-02-01T10:39:22;5.40;99.90
18335;DHT22;9293;49.524;10.964;2023-02-01T10:41:55;5.40;99.90
18335;DHT22;9293;49.524;10.964;2023-02-01T10:44:29;5.40;99.90
18335;DHT22;9293;49.524;10.964;2023-02-01T10:46:58;5.40;99.90
18335;DHT22;9293;49.524;10.964;2023-02-01T10:49:31;5.40;99.90
18335;DHT22;9293;49.524;10.964;2023-02-01T10:52:10;5.50;99.90
18335;DHT22;9293;49.524;10.964;2023-02-01T10:54:40;5.60;99.90
18335;DHT22;9293;49.524;10.964;2023-02-01T10:57:10;5.70;99.90
18335;DHT22;9293;49.524;10.964;2023-02-01T10:59:38;5.70;99.90
18335;DHT22;9293;49.524;10.964;2023-02-01T11:02:26;5.70;99.90
18335;DHT22;9293;49.524;10.964;2023-02-01T11:05:10;5.60;99.90
18335;DHT22;9293;49.524;10.964;2023-02-01T11:07:49;5.50;99.90
18335;DHT22;9293;49.524;10.964;2023-02-01T11:10:40;5.40;99.90
18335;DHT22;9293;49.524;10.964;2023-02-01T11:13:15;5.40;99.90
18335;DHT22;9293;49.524;10.964;2023-02-01T11:15:54;5.30;99.90
18335;DHT22;9293;49.524;10.964;2023-02-01T11:18:28;5.30;99.90
18335;DHT22;9293;49.524;10.964;2023-02-01T11:20:58;5.30;99.90
18335;DHT22;9293;49.524;10.964;2023-02-01T11:23:30;5.30;99.90
18335;DHT22;9293;49.524;10.964;2023-02-01T11:26:26;5.30;99.90
18335;DHT22;9293;49.524;10.964;2023-02-01T11:29:05;5.40;99.90
18335;DHT22;9293;49.524;10.964;2023-02-01T11:31:38;5.40;99.90
18335;DHT22;9293;49.524;10.964;2023-02-01T11:34:10;5.50;99.90
18335;DHT22;9293;49.524;10.964;2023-02-01T11:36:41;5.50;99.90
18335;DHT22;9293;49.524;10.964;2023-02-01T11:39:18;5.50;99.90
18335;DHT22;9293;49.524;10.964;2023-02-01T11:42:26;5.50;99.90
18335;DHT22;9293;49.524;10.964;2023-02-01T11:45:17;5.50;99.90
18335;DHT22;9293;49.524;10.964;2023-02-01T11:47:45;5.50;99.90
18335;DHT22;9293;49.524;10.964;2023-02-01T11:50:21;5.50;99.90
18335;DHT22;9293;49.524;10.964;2023-02-01T12:03:11;5.70;99.90
18335;DHT22;9293;49.524;10.964;2023-02-01T12:07:44;5.50;99.90
18335;DHT22;9293;49.524;10.964;2023-02-01T12:10:28;5.40;99.90
18335;DHT22;9293;49.524;10.964;2023-02-01T12:25:09;5.60;99.90
18335;DHT22;9293;49.524;10.964;2023-02-01T12:31:07;5.50;99.90
18335;DHT22;9293;49.524;10.964;2023-02-01T12:36:22;5.40;99.90
18335;DHT22;9293;49.524;10.964;2023-02-01T12:39:05;5.40;99.90
18335;DHT22;9293;49.524;10.964;2023-02-01T12:41:47;5.30;99.90
18335;DHT22;9293;49.524;10.964;2023-02-01T12:44:31;5.40;99.90
18335;DHT22;9293;49.524;10.964;2023-02-01T12:47:20;5.30;99.90
18335;DHT22;9293;49.524;10.964;2023-02-01T12:50:03;5.20;99.90
18335;DHT22;9293;49.524;10.964;2023-02-01T12:52:44;5.30;99.90
18335;DHT22;9293;49.524;10.964;2023-02-01T12:58:18;5.40;99.90
18335;DHT22;9293;49.524;10.964;2023-02-01T13:01:09;5.40;99.90
18335;DHT22;9293;49.524;10.964;2023-02-01T13:06:57;5.40;99.90
18335;DHT22;9293;49.524;10.964;2023-02-01T13:09:37;5.40;99.90
18335;DHT22;9293;49.524;10.964;2023-02-01T13:12:16;5.40;99.90
18335;DHT22;9293;49.524;10.964;2023-02-01T13:14:50;5.40;99.90
18335;DHT22;9293;49.524;10.964;2023-02-01T13:17:29;5.30;99.90
18335;DHT22;9293;49.524;10.964;2023-02-01T13:22:41;5.30;99.90
18335;DHT22;9293;49.524;10.964;2023-02-01T13:28:10;5.20;99.90
18335;DHT22;9293;49.524;10.964;2023-02-01T13:36:59;5.10;99.90
18335;DHT22;9293;49.524;10.964;2023-02-01T13:39:49;5.20;99.90
18335;DHT22;9293;49.524;10.964;2023-02-01T13:42:29;5.20;99.90
18335;DHT22;9293;49.524;10.964;2023-02-01T13:45:03;5.20;99.90
18335;DHT22;9293;49.524;10.964;2023-02-01T13:47:38;5.30;99.90
18335;DHT22;9293;49.524;10.964;2023-02-01T13:52:58;5.40;99.90
18335;DHT22;9293;49.524;10.964;2023-02-01T13:55:32;5.40;99.90
18335;DHT22;9293;49.524;10.964;2023-02-01T13:58:04;5.50;99.90
18335;DHT22;9293;49.524;10.964;2023-02-01T14:00:41;5.50;99.90
18335;DHT22;9293;49.524;10.964;2023-02-01T14:03:19;5.60;99.90
18335;DHT22;9293;49.524;10.964;2023-02-01T14:08:40;5.60;99.90
18335;DHT22;9293;49.524;10.964;2023-02-01T14:11:32;5.60;99.90
18335;DHT22;9293;49.524;10.964;2023-02-01T14:16:43;5.60;99.90
18335;DHT22;9293;49.524;10.964;2023-02-01T14:19:27;5.50;99.90
18335;DHT22;9293;49.524;10.964;2023-02-01T14:24:50;5.50;99.90
18335;DHT22;9293;49.524;10.964;2023-02-01T14:27:24;5.50;99.90
18335;DHT22;9293;49.524;10.964;2023-02-01T14:29:58;5.50;99.90
18335;DHT22;9293;49.524;10.964;2023-02-01T14:32:32;5.60;99.90
18335;DHT22;9293;49.524;10.964;2023-02-01T14:35:16;5.60;99.90
18335;DHT22;9293;49.524;10.964;2023-02-01T14:37:45;5.90;99.90
18335;DHT22;9293;49.524;10.964;2023-02-01T14:40:20;5.80;99.90
18335;DHT22;9293;49.524;10.964;2023-02-01T14:42:51;5.60;99.90
18335;DHT22;9293;49.524;10.964;2023-02-01T14:50:44;5.60;99.90
18335;DHT22;9293;49.524;10.964;2023-02-01T14:55:48;5.50;99.90
18335;DHT22;9293;49.524;10.964;2023-02-01T15:01:01;5.40;99.90
18335;DHT22;9293;49.524;10.964;2023-02-01T15:06:26;5.40;99.90
18335;DHT22;9293;49.524;10.964;2023-02-01T15:09:11;5.40;99.90
18335;DHT22;9293;49.524;10.964;2023-02-01T15:12:15;5.30;99.90
18335;DHT22;9293;49.524;10.964;2023-02-01T15:14:44;5.30;99.90
18335;DHT22;9293;49.524;10.964;2023-02-01T15:17:35;5.30;99.90
18335;DHT22;9293;49.524;10.964;2023-02-01T15:20:29;5.30;99.90
18335;DHT22;9293;49.524;10.964;2023-02-01T15:23:02;5.30;99.90
18335;DHT22;9293;49.524;10.964;2023-02-01T15:25:36;5.30;99.90
18335;DHT22;9293;49.524;10.964;2023-02-01T15:28:13;5.30;99.90
18335;DHT22;9293;49.524;10.964;2023-02-01T15:31:00;5.30;99.90
18335;DHT22;9293;49.524;10.964;2023-02-01T15:33:30;5.30;99.90
18335;DHT22;9293;49.524;10.964;2023-02-01T15:36:10;5.30;99.90
18335;DHT22;9293;49.524;10.964;2023-02-01T15:38:42;5.40;99.90
18335;DHT22;9293;49.524;10.964;2023-02-01T15:41:15;5.30;99.90
18335;DHT22;9293;49.524;10.964;2023-02-01T15:43:48;5.30;99.90
18335;DHT22;9293;49.524;10.964;2023-02-01T15:46:36;5.30;99.90
18335;DHT22;9293;49.524;10.964;2023-02-01T15:49:31;5.30;99.90
18335;DHT22;9293;49.524;10.964;2023-02-01T15:52:00;5.20;99.90
18335;DHT22;9293;49.524;10.964;2023-02-01T15:54:32;5.20;99.90
18335;DHT22;9293;49.524;10.964;2023-02-01T15:57:04;5.20;99.90
18335;DHT22;9293;49.524;10.964;2023-02-01T15:59:44;5.20;99.90
18335;DHT22;9293;49.524;10.964;2023-02-01T16:02:27;5.20;99.90
18335;DHT22;9293;49.524;10.964;2023-02-01T16:04:56;5.20;99.90
18335;DHT22;9293;49.524;10.964;2023-02-01T16:07:30;5.20;99.90
18335;DHT22;9293;49.524;10.964;2023-02-01T16:10:01;5.10;99.90
18335;DHT22;9293;49.524;10.964;2023-02-01T16:15:12;5.20;99.90
18335;DHT22;9293;49.524;10.964;2023-02-01T16:17:40;5.10;99.90
18335;DHT22;9293;49.524;10.964;2023-02-01T16:20:09;5.20;99.90
18335;DHT22;9293;49.524;10.964;2023-02-01T16:22:37;5.20;99.90
18335;DHT22;9293;49.524;10.964;2023-02-01T16:25:05;5.20;99.90
18335;DHT22;9293;49.524;10.964;2023-02-01T16:27:33;5.10;99.90
18335;DHT22;9293;49.524;10.964;2023-02-01T16:30:01;5.20;99.90
18335;DHT22;9293;49.524;10.964;2023-02-01T16:32:30;5.20;99.90
18335;DHT22;9293;49.524;10.964;2023-02-01T16:34:58;5.20;99.90
18335;DHT22;9293;49.524;10.964;2023-02-01T16:37:26;5.20;99.90
18335;DHT22;9293;49.524;10.964;2023-02-01T16:39:56;5.20;99.90
18335;DHT22;9293;49.524;10.964;2023-02-01T16:42:37;5.20;99.90
18335;DHT22;9293;49.524;10.964;2023-02-01T16:45:06;5.20;99.90
18335;DHT22;9293;49.524;10.964;2023-02-01T16:47:37;5.20;99.90
18335;DHT22;9293;49.524;10.964;2023-02-01T16:50:15;5.20;99.90
18335;DHT22;9293;49.524;10.964;2023-02-01T16:52:50;5.20;99.90
18335;DHT22;9293;49.524;10.964;2023-02-01T16:55:20;5.30;99.90
18335;DHT22;9293;49.524;10.964;2023-02-01T16:57:52;5.20;99.90
18335;DHT22;9293;49.524;10.964;2023-02-01T17:00:22;5.30;99.90
18335;DHT22;9293;49.524;10.964;2023-02-01T17:02:55;5.30;99.90
18335;DHT22;9293;49.524;10.964;2023-02-01T17:05:23;5.30;99.90
18335;DHT22;9293;49.524;10.964;2023-02-01T17:07:52;5.30;99.90
18335;DHT22;9293;49.524;10.964;2023-02-01T17:10:25;5.30;99.90
18335;DHT22;9293;49.524;10.964;2023-02-01T17:13:01;5.30;99.90
18335;DHT22;9293;49.524;10.964;2023-02-01T17:15:32;5.30;99.90
18335;DHT22;9293;49.524;10.964;2023-02-01T17:18:02;5.20;99.90
18335;DHT22;9293;49.524;10.964;2023-02-01T17:20:31;5.30;99.90
18335;DHT22;9293;49.524;10.964;2023-02-01T17:22:59;5.30;99.90
18335;DHT22;9293;49.524;10.964;2023-02-01T17:25:29;5.30;99.90
18335;DHT22;9293;49.524;10.964;2023-02-01T17:27:58;5.30;99.90
18335;DHT22;9293;49.524;10.964;2023-02-01T17:30:26;5.30;99.90
18335;DHT22;9293;49.524;10.964;2023-02-01T17:32:55;5.30;99.90
18335;DHT22;9293;49.524;10.964;2023-02-01T17:35:25;5.40;99.90
18335;DHT22;9293;49.524;10.964;2023-02-01T17:37:54;5.40;99.90
18335;DHT22;9293;49.524;10.964;2023-02-01T17:40:23;5.30;99.90
18335;DHT22;9293;49.524;10.964;2023-02-01T17:42:51;5.40;99.90
18335;DHT22;9293;49.524;10.964;2023-02-01T17:47:52;5.40;99.90
18335;DHT22;9293;49.524;10.964;2023-02-01T17:50:29;5.40;99.90
18335;DHT22;9293;49.524;10.964;2023-02-01T17:52:57;5.30;99.90
18335;DHT22;9293;49.524;10.964;2023-02-01T17:55:33;5.30;99.90
18335;DHT22;9293;49.524;10.964;2023-02-01T17:58:01;5.30;99.90
18335;DHT22;9293;49.524;10.964;2023-02-01T18:00:29;5.30;99.90
18335;DHT22;9293;49.524;10.964;2023-02-01T18:02:57;5.30;99.90
18335;DHT22;9293;49.524;10.964;2023-02-01T18:05:34;5.30;99.90
18335;DHT22;9293;49.524;10.964;2023-02-01T18:08:03;5.30;99.90
18335;DHT22;9293;49.524;10.964;2023-02-01T18:10:31;5.30;99.90